createdAt,value
2022-11-15T00:03:05.349Z,1.27
2022-11-15T00:08:26.193Z,0.80
2022-11-15T00:13:46.809Z,1.43
2022-11-15T00:19:07.881Z,1.70
2022-11-15T00:24:28.880Z,1.73
2022-11-15T00:29:49.764Z,3.73
2022-11-15T00:35:10.569Z,1.80
2022-11-15T00:40:31.705Z,3.03
2022-11-15T00:45:52.457Z,3.17
2022-11-15T00:51:13.240Z,1.17
2022-11-15T00:56:34.271Z,1.50
2022-11-15T01:01:55.653Z,3.07
2022-11-15T01:07:16.747Z,0.87
2022-11-15T01:12:37.624Z,1.63
2022-11-15T01:17:58.497Z,0.70
2022-11-15T01:23:19.173Z,4.00
2022-11-15T01:28:41.434Z,2.90
2022-11-15T01:34:02.212Z,3.27
2022-11-15T01:39:23.062Z,3.40
2022-11-15T01:44:52.010Z,2.23
2022-11-15T01:50:17.151Z,1.67
2022-11-15T01:55:38.407Z,0.80
2022-11-15T02:00:59.401Z,0.70
2022-11-15T02:06:20.259Z,3.03
2022-11-15T02:11:41.286Z,0.90
2022-11-15T02:17:15.615Z,1.07
2022-11-15T02:23:13.762Z,1.63
2022-11-15T02:28:49.562Z,3.67
2022-11-15T02:34:35.010Z,2.23
2022-11-15T02:40:11.987Z,2.37
2022-11-15T02:45:36.647Z,2.07
2022-11-15T02:50:57.986Z,10.33
2022-11-15T02:56:19.008Z,2.60
2022-11-15T03:01:58.561Z,3.00
2022-11-15T03:07:25.302Z,2.03
2022-11-15T03:12:58.045Z,3.63
2022-11-15T03:18:24.791Z,1.20
2022-11-15T03:23:46.148Z,2.53
2022-11-15T03:29:13.180Z,1.53
2022-11-15T03:34:46.347Z,2.00
2022-11-15T03:40:07.637Z,3.53
2022-11-15T03:45:37.525Z,3.80
2022-11-15T03:50:58.309Z,2.45
2022-11-15T03:56:19.224Z,1.83
2022-11-15T04:01:39.996Z,5.73
2022-11-15T04:07:00.518Z,3.63
2022-11-15T04:12:32.067Z,2.30
2022-11-15T04:17:57.413Z,3.27
2022-11-15T04:23:39.222Z,2.83
2022-11-15T04:29:18.756Z,5.63
2022-11-15T04:34:39.701Z,4.43
2022-11-15T04:40:00.460Z,3.20
2022-11-15T04:45:20.997Z,3.27
2022-11-15T04:50:41.588Z,1.13
2022-11-15T04:56:02.176Z,1.83
2022-11-15T05:01:23.044Z,2.47
2022-11-15T05:06:43.823Z,4.23
2022-11-15T05:12:04.649Z,4.57
2022-11-15T05:17:25.506Z,4.80
2022-11-15T05:22:46.076Z,2.87
2022-11-15T05:28:06.864Z,2.53
2022-11-15T05:33:27.710Z,5.90
2022-11-15T05:38:49.725Z,2.60
2022-11-15T05:44:13.147Z,1.03
2022-11-15T05:49:36.100Z,2.93
2022-11-15T05:54:58.292Z,1.83
2022-11-15T06:00:19.608Z,3.53
2022-11-15T06:05:40.927Z,2.90
2022-11-15T06:11:08.699Z,3.80
2022-11-15T06:16:29.407Z,14.43
2022-11-15T06:21:50.000Z,3.63
2022-11-15T06:27:11.707Z,2.60
2022-11-15T06:32:32.674Z,1.67
2022-11-15T06:37:53.705Z,3.87
2022-11-15T06:43:17.924Z,2.60
2022-11-15T06:48:38.863Z,3.10
2022-11-15T06:53:59.593Z,9.93
2022-11-15T06:59:20.264Z,3.80
2022-11-15T07:04:41.178Z,2.17
2022-11-15T07:10:02.102Z,4.20
2022-11-15T07:15:26.288Z,3.77
2022-11-15T07:20:47.160Z,4.33
2022-11-15T07:26:09.359Z,3.10
2022-11-15T07:31:30.117Z,2.67
2022-11-15T07:36:50.931Z,1.53
2022-11-15T07:42:30.291Z,5.10
2022-11-15T07:47:51.453Z,8.33
2022-11-15T07:53:12.242Z,2.90
2022-11-15T07:58:32.773Z,2.87
2022-11-15T08:03:53.683Z,2.20
2022-11-15T08:09:14.545Z,1.80
2022-11-15T08:14:36.494Z,2.83
2022-11-15T08:19:57.561Z,4.63
2022-11-15T08:25:18.767Z,4.80
2022-11-15T08:30:42.790Z,5.07
2022-11-15T08:36:03.710Z,4.77
2022-11-15T08:41:42.693Z,2.37
2022-11-15T08:47:03.250Z,4.63
2022-11-15T08:52:24.235Z,7.67
2022-11-15T08:57:45.634Z,3.23
2022-11-15T09:03:07.575Z,3.70
2022-11-15T09:08:47.102Z,5.33
2022-11-15T09:14:08.432Z,2.58
2022-11-15T09:19:28.946Z,5.70
2022-11-15T09:24:50.105Z,5.47
2022-11-15T09:30:12.362Z,5.83
2022-11-15T09:35:33.526Z,4.97
2022-11-15T09:41:12.266Z,4.63
2022-11-15T09:46:53.159Z,2.63
2022-11-15T09:52:30.795Z,4.63
2022-11-15T09:57:41.257Z,7.80
2022-11-15T10:03:15.589Z,5.47
2022-11-15T10:08:33.526Z,7.47
2022-11-15T10:13:38.707Z,4.07
2022-11-15T10:19:18.591Z,6.43
2022-11-15T10:24:24.476Z,6.18
2022-11-15T10:29:27.625Z,6.70
2022-11-15T10:34:30.385Z,3.43
2022-11-15T10:39:34.819Z,7.03
2022-11-15T10:44:44.295Z,5.90
2022-11-15T10:49:55.527Z,10.00
2022-11-15T10:55:05.918Z,8.17
2022-11-15T11:00:28.881Z,5.07
2022-11-15T11:05:39.880Z,4.03
2022-11-15T11:11:03.918Z,7.87
2022-11-15T11:16:15.474Z,9.30
2022-11-15T11:21:42.739Z,4.30
2022-11-15T11:27:20.980Z,5.57
2022-11-15T11:32:54.858Z,7.40
2022-11-15T11:38:15.769Z,3.87
2022-11-15T11:43:46.619Z,4.90
2022-11-15T11:54:43.705Z,6.73
2022-11-15T12:00:00.283Z,7.03
2022-11-15T12:05:18.351Z,11.93
2022-11-15T12:10:25.373Z,3.87
2022-11-15T12:15:31.779Z,4.07
2022-11-15T12:20:41.907Z,6.03
2022-11-15T12:25:58.191Z,7.07
2022-11-15T12:31:07.449Z,3.87
2022-11-15T12:36:32.297Z,9.05
2022-11-15T12:41:45.276Z,7.80
2022-11-15T12:46:47.492Z,4.90
2022-11-15T12:51:49.570Z,4.83
2022-11-15T12:57:21.291Z,4.40
2022-11-15T13:02:33.876Z,6.40
2022-11-15T13:07:36.119Z,12.47
2022-11-15T13:12:47.638Z,10.30
2022-11-15T13:17:51.777Z,7.97
2022-11-15T13:23:06.134Z,4.27
2022-11-15T13:28:11.460Z,6.07
2022-11-15T13:33:36.344Z,8.20
2022-11-15T13:38:41.165Z,10.37
2022-11-15T13:43:43.696Z,6.23
2022-11-15T13:48:47.795Z,9.63
2022-11-15T13:54:15.330Z,7.80
2022-11-15T13:59:24.089Z,6.90
2022-11-15T14:04:30.843Z,11.13
2022-11-15T14:09:39.139Z,7.33
2022-11-15T14:14:46.848Z,10.33
2022-11-15T14:19:49.166Z,7.13
2022-11-15T14:25:14.571Z,10.70
2022-11-15T14:30:19.564Z,13.33
2022-11-15T14:35:23.743Z,7.23
2022-11-15T14:40:25.909Z,6.70
2022-11-15T14:45:28.754Z,10.23
2022-11-15T14:50:31.229Z,8.07
2022-11-15T14:55:37.300Z,4.53
2022-11-15T15:00:40.810Z,6.43
2022-11-15T15:05:44.675Z,5.67
2022-11-15T15:10:47.177Z,5.83
2022-11-15T15:15:50.784Z,5.40
2022-11-15T15:21:01.216Z,7.00
2022-11-15T15:26:04.162Z,5.33
2022-11-15T15:31:06.319Z,6.00
2022-11-15T15:36:16.218Z,8.73
2022-11-15T15:41:18.590Z,11.87
2022-11-15T15:46:21.606Z,13.33
2022-11-15T15:51:24.098Z,7.60
2022-11-15T15:56:26.225Z,7.30
2022-11-15T16:01:28.508Z,8.17
2022-11-15T16:06:42.442Z,10.47
2022-11-15T16:11:48.227Z,6.63
2022-11-15T16:16:50.272Z,5.83
2022-11-15T16:21:53.254Z,7.13
2022-11-15T16:26:55.397Z,6.57
2022-11-15T16:31:57.649Z,6.33
2022-11-15T16:36:59.763Z,7.07
2022-11-15T16:42:03.679Z,8.10
2022-11-15T16:47:05.805Z,7.93
2022-11-15T16:52:07.954Z,7.83
2022-11-15T16:57:11.636Z,9.50
2022-11-15T17:02:14.197Z,5.33
2022-11-15T17:07:16.394Z,7.13
2022-11-15T17:12:18.568Z,6.20
2022-11-15T17:17:21.831Z,8.07
2022-11-15T17:22:24.289Z,7.70
2022-11-15T17:27:26.448Z,7.57
2022-11-15T17:32:28.598Z,7.20
2022-11-15T17:37:30.783Z,6.70
2022-11-15T17:42:35.514Z,6.17
2022-11-15T17:47:38.169Z,6.93
2022-11-15T17:52:57.586Z,5.87
2022-11-15T17:57:59.789Z,5.63
2022-11-15T18:03:01.821Z,6.10
2022-11-15T18:08:04.087Z,7.60
2022-11-15T18:13:06.357Z,7.67
2022-11-15T18:18:08.623Z,7.90
2022-11-15T18:23:10.733Z,11.07
2022-11-15T18:28:12.862Z,6.43
2022-11-15T18:33:14.988Z,9.70
2022-11-15T18:38:17.205Z,7.23
2022-11-15T18:43:19.269Z,8.60
2022-11-15T18:48:21.504Z,6.27
2022-11-15T18:53:24.031Z,5.60
2022-11-15T18:58:26.151Z,10.90
2022-11-15T19:03:31.892Z,16.13
2022-11-15T19:08:35.652Z,12.37
2022-11-15T19:13:37.829Z,9.40
2022-11-15T19:18:40.182Z,11.20
2022-11-15T19:23:43.134Z,8.07
2022-11-15T19:28:45.291Z,8.10
2022-11-15T19:33:48.155Z,9.33
2022-11-15T19:38:50.622Z,10.20
2022-11-15T19:43:53.468Z,11.20
2022-11-15T19:48:55.547Z,8.40
2022-11-15T19:54:01.612Z,11.03
2022-11-15T19:59:05.196Z,8.70
2022-11-15T20:04:10.301Z,9.00
2022-11-15T20:09:14.242Z,9.73
2022-11-15T20:14:16.438Z,10.70
2022-11-15T20:19:18.542Z,11.17
2022-11-15T20:24:20.975Z,9.43
2022-11-15T20:29:23.622Z,11.87
2022-11-15T20:34:25.666Z,12.10
2022-11-15T20:39:27.812Z,8.63
2022-11-15T20:44:29.856Z,8.17
2022-11-15T20:49:31.905Z,7.40
2022-11-15T20:54:33.948Z,10.40
2022-11-15T20:59:36.086Z,8.07
2022-11-15T21:04:38.226Z,7.40
2022-11-15T21:10:01.787Z,8.83
2022-11-15T21:15:04.732Z,9.70
2022-11-15T21:20:07.266Z,6.93
2022-11-15T21:25:09.780Z,8.83
2022-11-15T21:30:12.846Z,8.37
2022-11-15T21:35:14.961Z,9.93
2022-11-15T21:40:17.305Z,7.80
2022-11-15T21:45:19.475Z,14.53
2022-11-15T21:50:21.535Z,11.37
2022-11-15T21:55:23.579Z,10.80
2022-11-15T22:00:44.209Z,12.67
2022-11-15T22:05:46.435Z,14.73
2022-11-15T22:10:49.280Z,13.37
2022-11-15T22:15:52.152Z,13.53
2022-11-15T22:20:59.319Z,14.60
2022-11-15T22:26:02.020Z,11.07
2022-11-15T22:31:04.741Z,11.50
2022-11-15T22:36:07.888Z,13.80
2022-11-15T22:41:10.080Z,10.67
2022-11-15T22:46:12.256Z,15.87
2022-11-15T22:51:14.433Z,13.90
2022-11-15T22:56:20.261Z,8.13
2022-11-15T23:01:22.841Z,8.60
2022-11-15T23:06:25.097Z,13.13
2022-11-15T23:11:45.813Z,9.83
2022-11-15T23:16:47.998Z,7.57
2022-11-15T23:22:08.758Z,11.67
2022-11-15T23:27:15.388Z,12.80
2022-11-15T23:32:36.319Z,12.27
2022-11-15T23:37:38.627Z,13.27
2022-11-15T23:42:40.812Z,11.07
2022-11-15T23:47:43.660Z,12.60
2022-11-15T23:52:45.821Z,9.70
2022-11-15T23:57:48.040Z,13.23
